createdAt,value
2024-05-09T00:00:10.480Z,0.00
2024-05-09T00:01:08.151Z,0.00
2024-05-09T00:02:08.093Z,0.00
2024-05-09T00:03:08.997Z,0.00
2024-05-09T00:04:07.927Z,0.00
2024-05-09T00:05:07.926Z,0.00
2024-05-09T00:06:07.829Z,0.00
2024-05-09T00:07:07.624Z,0.00
2024-05-09T00:08:07.602Z,0.00
2024-05-09T00:09:07.447Z,0.00
2024-05-09T00:10:11.797Z,0.00
2024-05-09T00:29:05.861Z,0.00
2024-05-09T00:30:07.305Z,0.00
2024-05-09T00:32:03.858Z,0.00
2024-05-09T00:33:04.185Z,0.00
2024-05-09T00:34:03.603Z,0.00
2024-05-09T00:35:03.398Z,0.00
2024-05-09T00:36:03.298Z,0.00
2024-05-09T00:37:03.233Z,0.00
2024-05-09T00:38:03.475Z,0.00
2024-05-09T00:39:03.055Z,0.00
2024-05-09T00:40:03.560Z,0.00
2024-05-09T00:41:02.970Z,0.00
2024-05-09T00:42:02.810Z,0.00
2024-05-09T00:43:02.731Z,0.00
2024-05-09T00:44:02.738Z,0.00
2024-05-09T00:45:02.562Z,0.00
2024-05-09T00:46:02.479Z,0.00
2024-05-09T00:47:02.800Z,0.00
2024-05-09T00:49:02.413Z,0.00
2024-05-09T00:52:02.640Z,0.00
2024-05-09T00:55:02.670Z,0.00
2024-05-09T00:57:01.629Z,0.00
2024-05-09T00:59:01.500Z,0.00
2024-05-09T01:00:01.395Z,0.00
2024-05-09T01:01:01.673Z,0.00
2024-05-09T01:02:01.296Z,0.00
2024-05-09T01:03:01.358Z,0.00
2024-05-09T01:04:01.227Z,0.00
2024-05-09T01:07:01.252Z,0.00
2024-05-09T01:08:00.779Z,0.00
2024-05-09T01:09:00.701Z,0.00
2024-05-09T01:10:00.892Z,0.00
2024-05-09T01:12:00.624Z,0.00
2024-05-09T01:13:00.422Z,0.00
2024-05-09T01:14:00.477Z,0.00
2024-05-09T01:18:00.593Z,0.00
2024-05-09T01:41:14.016Z,0.00
2024-05-09T01:42:13.740Z,0.00
2024-05-09T01:43:13.480Z,0.00
2024-05-09T01:44:13.613Z,0.00
2024-05-09T01:45:13.534Z,0.00
2024-05-09T01:46:13.460Z,0.00
2024-05-09T01:47:13.290Z,0.00
2024-05-09T01:48:13.305Z,0.00
2024-05-09T01:49:13.179Z,0.00
2024-05-09T01:50:16.389Z,0.00
2024-05-09T01:52:13.071Z,0.00
2024-05-09T01:53:13.615Z,0.00
2024-05-09T01:54:12.767Z,0.00
2024-05-09T01:55:12.715Z,0.00
2024-05-09T01:57:12.731Z,0.00
2024-05-09T01:59:12.251Z,0.00
2024-05-09T02:00:34.148Z,0.00
2024-05-09T02:01:12.047Z,0.00
2024-05-09T02:02:12.494Z,0.00
2024-05-09T02:03:15.188Z,0.00
2024-05-09T02:06:11.978Z,0.00
2024-05-09T02:07:12.128Z,0.00
2024-05-09T02:08:12.199Z,0.00
2024-05-09T02:09:53.811Z,0.00
2024-05-09T02:10:53.859Z,0.00
2024-05-09T02:11:53.709Z,0.00
2024-05-09T02:12:53.576Z,0.00
2024-05-09T02:13:53.485Z,0.00
2024-05-09T02:14:53.407Z,0.00
2024-05-09T02:15:53.336Z,0.00
2024-05-09T02:16:53.262Z,0.00
2024-05-09T02:17:53.502Z,0.00
2024-05-09T02:18:53.121Z,0.00
2024-05-09T02:19:53.012Z,0.00
2024-05-09T02:20:52.947Z,0.00
2024-05-09T02:21:52.832Z,0.00
2024-05-09T02:22:52.837Z,0.00
2024-05-09T02:23:52.666Z,0.00
2024-05-09T02:24:52.586Z,0.00
2024-05-09T02:25:52.549Z,0.00
2024-05-09T02:26:52.422Z,0.00
2024-05-09T02:27:52.338Z,0.00
2024-05-09T02:28:52.333Z,0.00
2024-05-09T02:29:52.179Z,0.00
2024-05-09T02:30:52.494Z,0.00
2024-05-09T02:31:52.103Z,0.00
2024-05-09T02:32:52.180Z,0.00
2024-05-09T02:33:52.066Z,0.00
2024-05-09T02:34:51.817Z,0.00
2024-05-09T02:35:51.714Z,0.00
2024-05-09T02:36:51.601Z,0.00
2024-05-09T02:37:51.541Z,0.00
2024-05-09T02:38:51.440Z,0.00
2024-05-09T02:39:51.354Z,0.00
2024-05-09T02:40:51.318Z,0.00
2024-05-09T02:41:51.199Z,0.00
2024-05-09T02:42:51.110Z,0.00
2024-05-09T02:43:51.087Z,0.00
2024-05-09T02:44:50.966Z,0.00
2024-05-09T02:46:38.376Z,0.00
2024-05-09T02:47:38.774Z,0.00
2024-05-09T02:48:39.028Z,0.00
2024-05-09T02:49:38.205Z,0.00
2024-05-09T02:50:39.883Z,0.00
2024-05-09T02:51:38.233Z,0.00
2024-05-09T02:52:38.282Z,0.00
2024-05-09T02:53:37.824Z,0.00
2024-05-09T02:54:37.720Z,0.00
2024-05-09T02:56:37.586Z,0.00
2024-05-09T02:58:37.356Z,0.00
2024-05-09T02:59:37.337Z,0.00
2024-05-09T03:00:40.602Z,0.00
2024-05-09T03:01:37.287Z,0.00
2024-05-09T03:02:37.122Z,0.00
2024-05-09T03:03:37.538Z,0.00
2024-05-09T03:04:36.961Z,0.00
2024-05-09T03:05:37.199Z,0.00
2024-05-09T03:06:36.899Z,0.00
2024-05-09T03:07:39.703Z,0.00
2024-05-09T03:08:36.558Z,0.00
2024-05-09T03:09:36.441Z,0.00
2024-05-09T03:10:38.407Z,0.00
2024-05-09T03:11:36.367Z,0.00
2024-05-09T03:12:39.056Z,0.00
2024-05-09T03:13:36.116Z,0.00
2024-05-09T03:14:36.067Z,0.00
2024-05-09T03:15:36.280Z,0.00
2024-05-09T03:16:36.087Z,0.00
2024-05-09T03:17:36.057Z,0.00
2024-05-09T03:18:35.817Z,0.00
2024-05-09T03:19:35.651Z,0.00
2024-05-09T03:20:36.744Z,0.00
2024-05-09T03:21:35.879Z,0.00
2024-05-09T03:22:35.559Z,0.00
2024-05-09T03:23:35.317Z,0.00
2024-05-09T03:24:35.442Z,0.00
2024-05-09T03:25:35.120Z,0.00
2024-05-09T03:26:35.048Z,0.00
2024-05-09T03:28:35.102Z,0.00
2024-05-09T03:29:35.803Z,0.00
2024-05-09T03:30:39.800Z,0.00
2024-05-09T03:31:35.061Z,0.00
2024-05-09T03:33:35.212Z,0.00
2024-05-09T03:34:34.399Z,0.00
2024-05-09T03:35:35.792Z,0.00
2024-05-09T03:36:34.233Z,0.00
2024-05-09T03:38:34.315Z,0.00
2024-05-09T03:39:35.195Z,0.00
2024-05-09T03:41:34.046Z,0.00
2024-05-09T03:47:33.408Z,0.00
2024-05-09T03:48:33.274Z,5.63
2024-05-09T03:49:33.211Z,5.63
2024-05-09T03:50:35.628Z,5.63
2024-05-09T03:51:32.964Z,5.63
2024-05-09T03:52:32.851Z,5.63
2024-05-09T03:53:32.898Z,5.63
2024-05-09T03:54:32.685Z,5.63
2024-05-09T03:55:34.016Z,5.63
2024-05-09T03:56:32.602Z,5.63
2024-05-09T03:57:32.440Z,5.63
2024-05-09T03:58:32.500Z,11.25
2024-05-09T03:59:32.484Z,11.25
2024-05-09T04:00:37.930Z,11.25
2024-05-09T04:01:32.287Z,11.25
2024-05-09T04:02:32.162Z,11.25
2024-05-09T04:03:32.029Z,11.25
2024-05-09T04:04:32.022Z,11.25
2024-05-09T04:05:31.906Z,11.25
2024-05-09T04:06:31.728Z,16.88
2024-05-09T04:08:44.230Z,16.88
2024-05-09T04:09:44.061Z,16.88
2024-05-09T04:10:44.147Z,16.88
2024-05-09T04:11:43.982Z,16.88
2024-05-09T04:12:43.826Z,16.88
2024-05-09T04:13:43.850Z,16.88
2024-05-09T04:14:43.630Z,22.50
2024-05-09T04:15:43.547Z,22.50
2024-05-09T04:16:44.091Z,22.50
2024-05-09T04:17:43.558Z,22.50
2024-05-09T04:18:43.418Z,22.50
2024-05-09T04:19:43.516Z,22.50
2024-05-09T04:20:43.181Z,22.50
2024-05-09T04:22:25.520Z,28.13
2024-05-09T04:23:25.464Z,28.13
2024-05-09T04:24:26.163Z,28.13
2024-05-09T04:25:25.267Z,28.13
2024-05-09T04:26:25.264Z,28.13
2024-05-09T04:27:25.106Z,28.13
2024-05-09T04:28:25.012Z,28.13
2024-05-09T04:29:25.045Z,28.13
2024-05-09T04:30:34.474Z,33.75
2024-05-09T04:31:24.773Z,33.75
2024-05-09T04:32:24.814Z,33.75
2024-05-09T04:33:24.987Z,33.75
2024-05-09T04:34:24.629Z,33.75
2024-05-09T04:35:24.658Z,33.75
2024-05-09T04:36:24.351Z,33.75
2024-05-09T04:37:24.626Z,33.75
2024-05-09T04:38:24.699Z,33.75
2024-05-09T04:39:24.096Z,39.38
2024-05-09T04:40:31.411Z,39.38
2024-05-09T04:41:23.979Z,39.38
2024-05-09T04:42:23.842Z,39.38
2024-05-09T04:43:23.755Z,39.38
2024-05-09T04:44:23.726Z,39.38
2024-05-09T04:45:23.588Z,39.38
2024-05-09T04:46:23.501Z,39.38
2024-05-09T04:47:23.584Z,39.38
2024-05-09T04:48:23.462Z,45.00
2024-05-09T04:49:23.382Z,45.00
2024-05-09T04:50:30.310Z,45.00
2024-05-09T04:51:23.085Z,45.00
2024-05-09T04:52:23.013Z,45.00
2024-05-09T04:53:22.995Z,45.00
2024-05-09T04:54:33.502Z,45.00
2024-05-09T04:55:22.750Z,45.00
2024-05-09T04:56:22.758Z,45.00
2024-05-09T04:57:22.578Z,50.63
2024-05-09T04:58:22.491Z,50.63
2024-05-09T04:59:22.482Z,50.63
2024-05-09T05:00:31.826Z,56.25
2024-05-09T05:01:22.418Z,56.25
2024-05-09T05:02:22.243Z,61.88
2024-05-09T05:03:22.360Z,61.88
2024-05-09T05:05:21.920Z,61.88
2024-05-09T05:06:21.827Z,61.88
2024-05-09T05:07:21.833Z,61.88
2024-05-09T05:08:22.457Z,61.88
2024-05-09T05:09:22.725Z,61.88
2024-05-09T05:10:29.474Z,61.88
2024-05-09T05:11:21.506Z,61.88
2024-05-09T05:12:21.446Z,61.88
2024-05-09T05:13:22.575Z,61.88
2024-05-09T05:14:21.233Z,61.88
2024-05-09T05:16:21.035Z,61.88
2024-05-09T05:17:21.066Z,61.88
2024-05-09T05:19:33.622Z,67.50
2024-05-09T05:21:20.985Z,67.50
2024-05-09T05:22:20.529Z,67.50
2024-05-09T05:23:20.667Z,67.50
2024-05-09T05:24:21.013Z,67.50
2024-05-09T05:25:20.240Z,67.50
2024-05-09T05:26:20.318Z,67.50
2024-05-09T05:27:20.117Z,67.50
2024-05-09T05:28:20.031Z,67.50
2024-05-09T05:29:20.889Z,73.13
2024-05-09T05:30:25.217Z,73.13
2024-05-09T05:31:19.821Z,73.13
2024-05-09T05:32:19.947Z,73.13
2024-05-09T05:33:20.307Z,73.13
2024-05-09T05:49:19.282Z,78.75
2024-05-09T05:59:17.950Z,84.38
2024-05-09T06:00:28.520Z,84.38
2024-05-09T06:23:30.269Z,90.00
2024-05-09T06:24:30.486Z,90.00
2024-05-09T06:25:30.031Z,90.00
2024-05-09T06:27:29.850Z,90.00
2024-05-09T06:28:29.764Z,90.00
2024-05-09T06:29:30.580Z,90.00
2024-05-09T06:30:37.086Z,90.00
2024-05-09T06:31:29.526Z,90.00
2024-05-09T06:32:29.553Z,90.00
2024-05-09T06:33:29.722Z,95.63
2024-05-09T06:34:29.869Z,95.63
2024-05-09T06:35:29.568Z,95.63
2024-05-09T06:36:29.540Z,95.63
2024-05-09T06:37:29.352Z,95.63
2024-05-09T06:38:29.063Z,95.63
2024-05-09T06:39:28.893Z,95.63
2024-05-09T06:40:36.444Z,95.63
2024-05-09T06:41:28.892Z,95.63
2024-05-09T06:42:28.641Z,95.63
2024-05-09T06:43:29.166Z,95.63
2024-05-09T06:44:28.610Z,95.63
2024-05-09T06:45:28.476Z,95.63
2024-05-09T06:46:28.630Z,95.63
2024-05-09T06:47:28.489Z,95.63
2024-05-09T06:48:28.236Z,95.63
2024-05-09T06:49:28.189Z,95.63
2024-05-09T06:50:31.471Z,95.63
2024-05-09T06:51:27.897Z,95.63
2024-05-09T06:52:27.820Z,95.63
2024-05-09T06:53:27.788Z,95.63
2024-05-09T06:54:27.653Z,95.63
2024-05-09T06:55:27.585Z,95.63
2024-05-09T06:56:27.536Z,95.63
2024-05-09T06:57:27.449Z,95.63
2024-05-09T06:58:27.343Z,95.63
2024-05-09T06:59:28.031Z,101.25
2024-05-09T07:00:35.343Z,95.63
2024-05-09T07:01:27.154Z,101.25
2024-05-09T07:02:27.164Z,101.25
2024-05-09T07:03:27.136Z,101.25
2024-05-09T07:04:26.989Z,101.25
2024-05-09T07:05:26.978Z,101.25
2024-05-09T07:06:26.705Z,101.25
2024-05-09T07:07:26.641Z,101.25
2024-05-09T07:08:26.571Z,101.25
2024-05-09T07:09:26.468Z,101.25
2024-05-09T07:11:26.573Z,101.25
2024-05-09T07:12:26.657Z,101.25
2024-05-09T07:13:26.149Z,101.25
2024-05-09T07:14:26.396Z,101.25
2024-05-09T07:15:26.050Z,101.25
2024-05-09T07:16:26.153Z,101.25
2024-05-09T07:17:26.102Z,101.25
2024-05-09T07:18:25.909Z,101.25
2024-05-09T07:19:25.831Z,101.25
2024-05-09T07:20:33.786Z,101.25
2024-05-09T07:21:26.157Z,101.25
2024-05-09T07:22:25.437Z,101.25
2024-05-09T07:23:25.422Z,101.25
2024-05-09T07:24:25.283Z,101.25
2024-05-09T07:25:25.204Z,101.25
2024-05-09T07:26:25.195Z,101.25
2024-05-09T07:27:25.053Z,101.25
2024-05-09T07:28:24.967Z,101.25
2024-05-09T07:29:24.926Z,101.25
2024-05-09T07:30:44.028Z,101.25
2024-05-09T07:31:24.740Z,101.25
2024-05-09T07:32:25.345Z,101.25
2024-05-09T07:33:26.244Z,101.25
2024-05-09T07:34:30.984Z,101.25
2024-05-09T07:35:37.775Z,101.25
2024-05-09T07:36:24.347Z,106.88
2024-05-09T07:37:24.568Z,106.88
2024-05-09T07:38:37.233Z,106.88
2024-05-09T07:39:24.204Z,106.88
2024-05-09T07:40:37.206Z,106.88
2024-05-09T07:41:23.997Z,101.25
2024-05-09T07:42:23.868Z,106.88
2024-05-09T07:43:30.054Z,106.88
2024-05-09T07:44:23.787Z,106.88
2024-05-09T07:45:40.575Z,106.88
2024-05-09T07:48:49.056Z,106.88
2024-05-09T07:53:30.316Z,106.88
2024-05-09T07:53:39.572Z,106.88
2024-05-09T07:54:23.148Z,106.88
2024-05-09T07:55:23.084Z,106.88
2024-05-09T07:59:22.580Z,106.88
2024-05-09T08:01:23.089Z,106.88
2024-05-09T08:02:22.934Z,106.88
2024-05-09T08:04:25.083Z,106.88
2024-05-09T08:05:22.190Z,106.88
2024-05-09T08:06:22.340Z,112.50
2024-05-09T08:07:22.410Z,112.50
2024-05-09T08:09:21.898Z,112.50
2024-05-09T08:12:21.571Z,112.50
2024-05-09T08:13:21.840Z,112.50
2024-05-09T08:14:21.615Z,112.50
2024-05-09T08:16:21.849Z,112.50
2024-05-09T08:17:21.407Z,112.50
2024-05-09T08:18:21.413Z,112.50
2024-05-09T08:19:21.104Z,112.50
2024-05-09T08:20:30.137Z,112.50
2024-05-09T08:21:20.863Z,112.50
2024-05-09T08:23:20.710Z,112.50
2024-05-09T08:24:20.848Z,112.50
2024-05-09T08:25:20.785Z,112.50
2024-05-09T08:26:20.438Z,112.50
2024-05-09T08:27:20.387Z,112.50
2024-05-09T08:28:20.344Z,112.50
2024-05-09T08:29:20.422Z,112.50
2024-05-09T08:30:25.393Z,112.50
2024-05-09T08:31:20.153Z,118.13
2024-05-09T08:32:20.017Z,123.75
2024-05-09T08:33:20.313Z,118.13
2024-05-09T08:35:19.829Z,118.13
2024-05-09T08:37:23.204Z,118.13
2024-05-09T08:38:19.509Z,123.75
2024-05-09T08:39:19.674Z,129.38
2024-05-09T08:41:19.522Z,135.00
2024-05-09T08:44:19.080Z,180.00
2024-05-09T08:46:19.253Z,168.75
2024-05-09T08:48:19.798Z,129.38
2024-05-09T08:49:18.869Z,129.38
2024-05-09T08:52:02.489Z,185.63
2024-05-09T08:53:02.408Z,146.25
2024-05-09T08:54:02.315Z,146.25
2024-05-09T08:55:02.376Z,168.75
2024-05-09T08:56:02.173Z,174.38
2024-05-09T08:57:54.605Z,163.13
2024-05-09T08:58:54.497Z,146.25
2024-05-09T08:59:54.430Z,185.63
2024-05-09T09:00:54.423Z,174.38
2024-05-09T09:01:54.338Z,163.13
2024-05-09T09:02:54.264Z,157.50
2024-05-09T09:03:54.297Z,163.13
2024-05-09T09:04:54.152Z,163.13
2024-05-09T09:05:54.030Z,157.50
2024-05-09T09:06:57.125Z,129.38
2024-05-09T09:07:53.826Z,135.00
2024-05-09T09:08:53.733Z,129.38
2024-05-09T09:09:53.711Z,135.00
2024-05-09T09:10:53.676Z,151.88
2024-05-09T09:11:53.609Z,163.13
2024-05-09T09:12:53.477Z,196.88
2024-05-09T09:13:53.343Z,180.00
2024-05-09T09:14:53.275Z,196.88
2024-05-09T09:15:53.219Z,225.00
2024-05-09T09:16:53.117Z,247.50
2024-05-09T09:17:53.175Z,236.25
2024-05-09T09:18:53.329Z,241.88
2024-05-09T09:19:52.964Z,213.75
2024-05-09T09:20:52.813Z,174.38
2024-05-09T09:21:52.786Z,191.25
2024-05-09T09:23:52.856Z,213.75
2024-05-09T09:24:52.593Z,258.75
2024-05-09T09:25:52.580Z,270.00
2024-05-09T09:26:52.354Z,286.88
2024-05-09T09:27:52.305Z,303.75
2024-05-09T09:28:56.286Z,258.75
2024-05-09T09:29:52.131Z,264.38
2024-05-09T09:30:52.162Z,292.50
2024-05-09T09:31:51.982Z,286.88
2024-05-09T09:32:52.035Z,281.25
2024-05-09T09:33:52.132Z,270.00
2024-05-09T09:34:51.881Z,270.00
2024-05-09T09:37:09.489Z,230.63
2024-05-09T09:38:09.098Z,225.00
2024-05-09T09:39:09.018Z,213.75
2024-05-09T09:40:10.752Z,196.88
2024-05-09T09:41:08.931Z,180.00
2024-05-09T09:42:08.787Z,213.75
2024-05-09T09:43:08.884Z,270.00
2024-05-09T09:44:08.638Z,315.00
2024-05-09T09:45:08.560Z,326.25
2024-05-09T09:46:11.697Z,315.00
2024-05-09T09:47:08.649Z,326.25
2024-05-09T09:48:09.030Z,320.63
2024-05-09T09:49:08.578Z,309.38
2024-05-09T09:50:14.220Z,292.50
2024-05-09T09:51:08.160Z,298.13
2024-05-09T09:52:10.995Z,275.63
2024-05-09T09:53:07.954Z,264.38
2024-05-09T09:55:08.585Z,219.38
2024-05-09T09:59:13.403Z,292.50
2024-05-09T10:00:17.417Z,320.63
2024-05-09T10:01:13.372Z,337.50
2024-05-09T10:02:13.358Z,360.00
2024-05-09T10:03:13.258Z,348.75
2024-05-09T10:04:13.532Z,348.75
2024-05-09T10:05:13.026Z,343.13
2024-05-09T10:06:12.919Z,331.88
2024-05-09T10:07:12.845Z,337.50
2024-05-09T10:08:12.736Z,331.88
2024-05-09T10:09:12.641Z,326.25
2024-05-09T10:10:16.249Z,360.00
2024-05-09T10:11:12.530Z,382.50
2024-05-09T10:12:12.668Z,388.13
2024-05-09T10:13:12.362Z,376.88
2024-05-09T10:14:12.269Z,382.50
2024-05-09T10:15:12.189Z,416.25
2024-05-09T10:16:12.469Z,399.38
2024-05-09T10:17:12.217Z,393.75
2024-05-09T10:18:12.129Z,405.00
2024-05-09T10:19:11.947Z,427.50
2024-05-09T10:20:18.262Z,444.38
2024-05-09T10:21:11.740Z,455.63
2024-05-09T10:22:11.750Z,438.75
2024-05-09T10:23:11.590Z,416.25
2024-05-09T10:24:11.514Z,388.13
2024-05-09T10:25:11.499Z,388.13
2024-05-09T10:26:11.372Z,337.50
2024-05-09T10:27:11.298Z,326.25
2024-05-09T10:28:11.387Z,315.00
2024-05-09T10:29:11.598Z,275.63
2024-05-09T10:30:17.715Z,247.50
2024-05-09T10:31:11.542Z,241.88
2024-05-09T10:32:11.130Z,230.63
2024-05-09T10:33:11.063Z,253.13
2024-05-09T10:34:10.954Z,247.50
2024-05-09T10:35:10.912Z,230.63
2024-05-09T10:36:10.617Z,236.25
2024-05-09T10:37:10.587Z,236.25
2024-05-09T10:38:10.461Z,258.75
2024-05-09T10:39:10.387Z,253.13
2024-05-09T10:40:17.239Z,241.88
2024-05-09T10:41:10.245Z,247.50
2024-05-09T10:42:10.157Z,241.88
2024-05-09T10:43:10.123Z,258.75
2024-05-09T10:44:10.313Z,258.75
2024-05-09T10:45:09.934Z,281.25
2024-05-09T10:46:10.174Z,292.50
2024-05-09T10:47:09.805Z,292.50
2024-05-09T10:48:09.796Z,292.50
2024-05-09T10:49:09.776Z,315.00
2024-05-09T10:50:18.348Z,326.25
2024-05-09T10:51:09.478Z,315.00
2024-05-09T10:52:09.495Z,303.75
2024-05-09T10:53:09.329Z,281.25
2024-05-09T10:54:09.265Z,360.00
2024-05-09T10:55:09.233Z,371.25
2024-05-09T10:56:09.215Z,736.88
2024-05-09T10:57:09.443Z,1563.75
2024-05-09T10:58:09.048Z,3138.75
2024-05-09T10:59:09.129Z,3645.00
2024-05-09T11:00:18.969Z,3223.13
2024-05-09T11:01:08.941Z,2030.63
2024-05-09T11:02:08.878Z,1822.50
2024-05-09T11:03:08.652Z,1102.50
2024-05-09T11:04:11.205Z,1321.88
2024-05-09T11:05:08.503Z,2098.13
2024-05-09T11:06:08.382Z,2317.50
2024-05-09T11:07:08.738Z,2238.75
2024-05-09T11:08:08.232Z,1158.75
2024-05-09T11:09:08.174Z,1423.13
2024-05-09T11:10:12.484Z,1389.38
2024-05-09T11:11:08.919Z,652.50
2024-05-09T11:12:08.100Z,832.50
2024-05-09T11:13:07.948Z,1231.88
2024-05-09T11:14:07.780Z,1659.38
2024-05-09T11:15:07.863Z,860.63
2024-05-09T11:16:07.855Z,759.38
2024-05-09T11:24:42.958Z,551.25
2024-05-09T11:25:42.644Z,320.63
2024-05-09T11:26:42.633Z,658.13
2024-05-09T11:27:42.536Z,855.00
2024-05-09T11:28:42.417Z,2278.13
2024-05-09T11:29:42.346Z,1383.75
2024-05-09T11:30:42.375Z,568.13
2024-05-09T11:31:42.379Z,472.50
2024-05-09T11:32:42.210Z,427.50
2024-05-09T11:33:42.314Z,275.63
2024-05-09T11:34:42.305Z,253.13
2024-05-09T11:35:42.107Z,348.75
2024-05-09T11:36:41.857Z,601.88
2024-05-09T11:37:41.750Z,500.63
2024-05-09T11:39:41.703Z,849.38
2024-05-09T11:40:41.783Z,933.75
2024-05-09T11:41:41.478Z,759.38
2024-05-09T11:42:41.476Z,1136.25
2024-05-09T11:44:41.233Z,2902.50
2024-05-09T11:45:41.329Z,2958.75
2024-05-09T11:46:41.138Z,2677.50
2024-05-09T11:47:41.726Z,2115.00
2024-05-09T11:49:33.575Z,2064.38
2024-05-09T11:51:56.081Z,2936.25
2024-05-09T11:52:56.774Z,3358.13
2024-05-09T11:54:55.803Z,877.50
2024-05-09T11:55:56.011Z,1563.75
2024-05-09T11:56:55.629Z,3009.38
2024-05-09T11:58:55.503Z,3245.63
2024-05-09T12:02:45.358Z,3414.38
2024-05-09T12:05:45.538Z,3335.63
2024-05-09T12:06:45.219Z,3296.25
2024-05-09T12:08:45.250Z,3211.88
2024-05-09T12:12:44.900Z,3088.13
2024-05-09T12:13:44.640Z,3020.63
2024-05-09T12:14:44.563Z,3009.38
2024-05-09T12:15:44.634Z,2970.00
2024-05-09T12:16:44.541Z,2936.25
2024-05-09T12:17:46.172Z,2880.00
2024-05-09T12:18:44.435Z,2806.88
2024-05-09T12:19:44.303Z,2767.50
2024-05-09T12:20:44.186Z,2778.75
2024-05-09T12:21:44.191Z,2767.50
2024-05-09T12:22:44.052Z,2745.00
2024-05-09T12:23:44.195Z,2745.00
2024-05-09T12:24:43.979Z,2722.50
2024-05-09T12:25:43.875Z,2694.38
2024-05-09T12:26:43.813Z,2677.50
2024-05-09T12:27:44.620Z,2649.38
2024-05-09T12:28:43.695Z,2638.13
2024-05-09T12:29:44.056Z,2632.50
2024-05-09T12:31:41.363Z,2632.50
2024-05-09T12:32:41.391Z,2610.00
2024-05-09T12:33:41.364Z,2576.25
2024-05-09T12:34:41.823Z,2570.63
2024-05-09T12:35:44.101Z,2311.88
2024-05-09T12:36:41.077Z,2469.38
2024-05-09T12:37:41.275Z,2497.50
2024-05-09T12:38:40.911Z,2452.50
2024-05-09T12:39:40.892Z,2463.75
2024-05-09T12:40:41.147Z,2452.50
2024-05-09T12:41:40.736Z,2458.13
2024-05-09T12:42:43.360Z,2407.50
2024-05-09T12:43:40.629Z,2418.75
2024-05-09T12:44:40.556Z,2407.50
2024-05-09T12:45:40.834Z,2407.50
2024-05-09T12:46:40.422Z,2435.63
2024-05-09T12:48:43.126Z,2503.13
2024-05-09T12:49:44.373Z,663.75
2024-05-09T12:50:43.084Z,2514.38
2024-05-09T12:51:42.876Z,2368.13
2024-05-09T12:52:42.777Z,2446.88
2024-05-09T12:53:42.724Z,2418.75
2024-05-09T12:54:42.725Z,2250.00
2024-05-09T12:55:48.848Z,2413.13
2024-05-09T12:56:42.537Z,2435.63
2024-05-09T12:57:42.578Z,2441.25
2024-05-09T12:58:42.410Z,2469.38
2024-05-09T12:59:42.377Z,2446.88
2024-05-09T13:00:42.478Z,2424.38
2024-05-09T13:01:42.322Z,2407.50
2024-05-09T13:02:42.268Z,2379.38
2024-05-09T13:03:42.373Z,2345.63
2024-05-09T13:04:42.204Z,1901.25
2024-05-09T13:05:42.295Z,2368.13
2024-05-09T13:06:41.957Z,2340.00
2024-05-09T13:07:42.015Z,2317.50
2024-05-09T13:08:41.806Z,2283.75
2024-05-09T13:09:41.793Z,2283.75
2024-05-09T13:10:41.937Z,2272.50
2024-05-09T13:11:41.662Z,2278.13
2024-05-09T13:12:42.399Z,2278.13
2024-05-09T13:13:41.554Z,2278.13
2024-05-09T13:14:41.511Z,2266.88
2024-05-09T13:15:41.426Z,2272.50
2024-05-09T13:17:29.321Z,2362.50
2024-05-09T13:18:29.493Z,2390.63
2024-05-09T13:19:29.087Z,2441.25
2024-05-09T13:20:33.065Z,2463.75
2024-05-09T13:21:29.177Z,562.50
2024-05-09T13:22:28.834Z,1445.63
2024-05-09T13:23:28.745Z,753.75
2024-05-09T13:24:28.735Z,2424.38
2024-05-09T13:25:28.618Z,2446.88
2024-05-09T13:26:28.576Z,2475.00
2024-05-09T13:27:28.550Z,2497.50
2024-05-09T13:28:28.483Z,2514.38
2024-05-09T13:29:28.375Z,2548.13
2024-05-09T13:30:35.781Z,2598.75
2024-05-09T13:31:28.416Z,2615.63
2024-05-09T13:32:29.693Z,2643.75
2024-05-09T13:33:28.230Z,2655.00
2024-05-09T13:34:28.092Z,2632.50
2024-05-09T13:35:28.029Z,2632.50
2024-05-09T13:36:28.101Z,2626.88
2024-05-09T13:37:27.939Z,2643.75
2024-05-09T13:38:27.837Z,2683.13
2024-05-09T13:39:27.794Z,2700.00
2024-05-09T13:40:33.369Z,2716.88
2024-05-09T13:41:27.668Z,2739.38
2024-05-09T13:42:27.607Z,2728.13
2024-05-09T13:43:27.602Z,2750.63
2024-05-09T13:44:27.537Z,2761.88
2024-05-09T13:45:27.427Z,2773.13
2024-05-09T13:46:27.404Z,2756.25
2024-05-09T13:47:27.366Z,2750.63
2024-05-09T13:48:27.267Z,2761.88
2024-05-09T13:49:27.211Z,2773.13
2024-05-09T13:50:32.904Z,2767.50
2024-05-09T13:51:27.073Z,2795.63
2024-05-09T13:52:27.059Z,478.13
2024-05-09T13:53:26.952Z,2851.88
2024-05-09T13:54:26.895Z,725.63
2024-05-09T13:55:26.833Z,1597.50
2024-05-09T13:56:26.771Z,2986.88
2024-05-09T13:57:26.716Z,1321.88
2024-05-09T13:58:26.677Z,1985.63
2024-05-09T13:59:29.210Z,3076.88
2024-05-09T14:00:37.944Z,3071.25
2024-05-09T14:01:26.604Z,3026.25
2024-05-09T14:02:26.562Z,3054.38
2024-05-09T14:03:26.463Z,2868.75
2024-05-09T14:04:27.032Z,703.13
2024-05-09T14:05:26.373Z,832.50
2024-05-09T14:07:26.134Z,2919.38
2024-05-09T14:08:26.050Z,776.25
2024-05-09T14:09:25.986Z,675.00
2024-05-09T14:10:30.762Z,618.75
2024-05-09T14:11:25.909Z,686.25
2024-05-09T14:12:25.787Z,826.88
2024-05-09T14:13:25.861Z,1749.38
2024-05-09T14:14:25.670Z,2958.75
2024-05-09T14:15:25.628Z,1968.75
2024-05-09T14:16:25.621Z,950.63
2024-05-09T14:17:25.580Z,1423.13
2024-05-09T14:18:25.462Z,2756.25
2024-05-09T14:20:31.087Z,500.63
2024-05-09T14:21:25.202Z,427.50
2024-05-09T14:24:07.564Z,393.75
2024-05-09T14:25:07.546Z,376.88
2024-05-09T14:26:49.927Z,534.38
2024-05-09T14:27:49.921Z,2503.13
2024-05-09T14:29:49.724Z,2615.63
2024-05-09T14:30:49.922Z,2632.50
2024-05-09T14:31:49.725Z,2604.38
2024-05-09T14:32:49.672Z,2593.13
2024-05-09T14:33:49.648Z,2581.88
2024-05-09T14:34:49.544Z,2559.38
2024-05-09T14:35:49.351Z,2536.88
2024-05-09T14:36:49.285Z,2520.00
2024-05-09T14:37:49.199Z,2503.13
2024-05-09T14:38:49.169Z,2480.63
2024-05-09T14:39:49.108Z,2458.13
2024-05-09T14:40:49.198Z,2430.00
2024-05-09T14:41:48.939Z,2323.13
2024-05-09T14:42:48.970Z,2390.63
2024-05-09T14:43:48.808Z,2390.63
2024-05-09T14:44:48.753Z,2340.00
2024-05-09T14:45:48.736Z,2317.50
2024-05-09T14:46:48.659Z,2131.88
2024-05-09T14:47:48.693Z,2255.63
2024-05-09T14:48:48.800Z,2266.88
2024-05-09T14:49:48.481Z,551.25
2024-05-09T14:50:48.364Z,472.50
2024-05-09T14:51:48.602Z,2216.25
2024-05-09T14:52:48.234Z,2176.88
2024-05-09T14:53:48.181Z,2193.75
2024-05-09T14:54:51.367Z,1659.38
2024-05-09T14:55:48.500Z,2131.88
2024-05-09T14:56:47.979Z,371.25
2024-05-09T14:57:47.999Z,343.13
2024-05-09T14:58:48.048Z,1006.88
2024-05-09T14:59:47.991Z,337.50
2024-05-09T15:00:50.877Z,748.13
2024-05-09T15:01:47.747Z,1867.50
2024-05-09T15:02:48.080Z,2041.88
2024-05-09T15:03:47.615Z,2053.13
2024-05-09T15:04:47.698Z,2070.00
2024-05-09T15:05:47.544Z,2036.25
2024-05-09T15:06:47.376Z,641.25
2024-05-09T15:07:47.291Z,2036.25
2024-05-09T15:08:47.263Z,2053.13
2024-05-09T15:09:47.197Z,2041.88
2024-05-09T15:10:47.530Z,1968.75
2024-05-09T15:11:47.103Z,1985.63
2024-05-09T15:12:46.976Z,618.75
2024-05-09T15:13:46.884Z,483.75
2024-05-09T15:14:46.819Z,1440.00
2024-05-09T15:15:46.915Z,348.75
2024-05-09T15:16:46.690Z,320.63
2024-05-09T15:17:46.704Z,315.00
2024-05-09T15:18:46.688Z,337.50
2024-05-09T15:19:46.714Z,376.88
2024-05-09T15:20:46.599Z,444.38
2024-05-09T15:21:46.379Z,900.00
2024-05-09T15:22:46.295Z,1670.63
2024-05-09T15:23:46.236Z,1648.13
2024-05-09T15:24:46.255Z,1631.25
2024-05-09T15:25:46.097Z,1608.75
2024-05-09T15:26:46.026Z,1591.88
2024-05-09T15:27:45.964Z,1569.38
2024-05-09T15:28:45.891Z,1569.38
2024-05-09T15:29:45.838Z,1535.63
2024-05-09T15:30:58.538Z,1524.38
2024-05-09T15:31:45.754Z,1507.50
2024-05-09T15:32:45.768Z,1473.75
2024-05-09T15:33:45.701Z,1496.25
2024-05-09T15:34:46.025Z,1518.75
2024-05-09T15:35:45.436Z,1552.50
2024-05-09T15:36:45.402Z,1552.50
2024-05-09T15:37:45.304Z,1530.00
2024-05-09T15:38:45.264Z,1518.75
2024-05-09T15:39:45.217Z,1513.13
2024-05-09T15:40:45.221Z,1507.50
2024-05-09T15:41:45.050Z,1507.50
2024-05-09T15:43:45.116Z,1265.63